Time;durP1;ratioP1;P1;durP2;ratioP2;P2;SDS_P1;SDS_P2;PMS_P1;PMS_P2;Temp;Humidity;BMP_temperature;BMP_pressure;BME280_temperature;BME280_humidity;BME280_pressure;Samples;Min_cycle;Max_cycle;Signal;HPM_P1;HPM_P2
2024/02/09 00:02:14;;;;;;;40.50;23.10;;;;;;;1.97;96.97;99180.39;105791;1264;101599;-80
2024/02/09 00:05:00;;;;;;;44.60;22.60;;;;;;;1.98;97.07;99176.13;105761;1262;99492;-79
2024/02/09 00:07:48;;;;;;;43.70;23.70;;;;;;;1.98;97.08;99173.33;106985;1267;97977;-80
2024/02/09 00:10:36;;;;;;;42.70;22.00;;;;;;;1.98;97.20;99166.48;105609;1262;97992;-80
2024/02/09 00:13:22;;;;;;;49.40;23.70;;;;;;;1.97;97.29;99163.15;105513;1262;98598;-79
2024/02/09 00:16:08;;;;;;;47.50;23.30;;;;;;;1.98;97.35;99163.91;105475;1265;101473;-80
2024/02/09 00:18:54;;;;;;;44.00;20.90;;;;;;;1.98;97.52;99169.36;105653;1268;99229;-81
2024/02/09 00:21:39;;;;;;;42.60;20.40;;;;;;;1.99;97.59;99166.00;105640;1265;99385;-81
2024/02/09 00:24:25;;;;;;;43.00;20.90;;;;;;;1.98;97.50;99157.59;105718;1264;97785;-81
2024/02/09 00:27:11;;;;;;;40.80;20.60;;;;;;;1.99;97.59;99158.58;105434;1264;98004;-80
2024/02/09 00:29:57;;;;;;;44.90;21.40;;;;;;;1.99;97.82;99163.52;105928;1262;102443;-80
2024/02/09 00:32:43;;;;;;;35.90;19.10;;;;;;;1.99;97.94;99163.82;106081;1262;99248;-81
2024/02/09 00:35:29;;;;;;;39.80;19.70;;;;;;;2.00;97.98;99162.36;106039;1262;99107;-81
2024/02/09 00:38:15;;;;;;;32.30;18.00;;;;;;;2.00;98.14;99160.91;106003;1262;98208;-80
2024/02/09 00:41:04;;;;;;;39.50;19.00;;;;;;;2.00;98.15;99160.09;105922;1267;98705;-80
2024/02/09 00:43:49;;;;;;;36.10;20.00;;;;;;;1.98;98.28;99159.76;105796;1262;101346;-80
2024/02/09 00:46:42;;;;;;;41.40;20.60;;;;;;;1.96;98.22;99159.92;106077;1262;99054;-80
2024/02/09 00:49:28;;;;;;;44.90;22.80;;;;;;;1.92;98.18;99167.74;106017;1267;98329;-80
2024/02/09 00:52:15;;;;;;;43.40;21.60;;;;;;;1.85;98.12;99170.83;106100;1261;98859;-81
2024/02/09 00:55:01;;;;;;;37.30;20.60;;;;;;;1.77;98.16;99172.98;106137;1267;97823;-80
2024/02/09 00:57:46;;;;;;;35.20;18.30;;;;;;;1.71;98.47;99175.35;106252;1264;102844;-79
2024/02/09 01:00:32;;;;;;;36.10;19.10;;;;;;;1.65;98.72;99181.09;105616;1264;100316;-81
2024/02/09 01:03:20;;;;;;;31.80;18.10;;;;;;;1.60;98.79;99179.02;105847;1270;99514;-80
2024/02/09 01:06:06;;;;;;;36.10;18.40;;;;;;;1.55;98.93;99177.13;106274;1262;97971;-81
2024/02/09 01:08:52;;;;;;;33.70;17.70;;;;;;;1.52;99.08;99175.67;106471;1263;99917;-80
2024/02/09 01:11:38;;;;;;;31.40;17.00;;;;;;;1.49;99.02;99176.70;106030;1262;101479;-81
2024/02/09 02:46:50;;;;;;;35.80;18.50;;;;;;;1.07;100.00;99143.27;105297;1273;98954;-79
2024/02/09 03:04:57;;;;;;;38.80;17.50;;;;;;;1.13;100.00;99141.86;106154;1264;99071;-81
2024/02/09 03:07:43;;;;;;;33.00;17.90;;;;;;;1.16;100.00;99141.60;106131;1265;97997;-81
2024/02/09 03:10:29;;;;;;;35.20;17.20;;;;;;;1.18;100.00;99142.42;106125;1260;98393;-80
2024/02/09 03:13:15;;;;;;;31.80;16.90;;;;;;;1.20;100.00;99141.17;106072;1263;101325;-81
2024/02/09 03:16:00;;;;;;;34.20;17.80;;;;;;;1.22;100.00;99142.34;106125;1265;99089;-80
2024/02/09 03:18:46;;;;;;;33.70;18.60;;;;;;;1.23;100.00;99147.55;106191;1264;97873;-81
2024/02/09 03:21:35;;;;;;;33.90;18.40;;;;;;;1.24;100.00;99150.41;106214;1262;97962;-81
2024/02/09 03:24:21;;;;;;;80.90;33.60;;;;;;;1.25;100.00;99153.81;106308;1261;96449;-81
2024/02/09 03:27:07;;;;;;;56.80;26.80;;;;;;;1.25;100.00;99154.27;106292;1264;102793;-80
2024/02/09 03:29:54;;;;;;;42.10;20.40;;;;;;;1.24;100.00;99154.61;105695;1264;99126;-80
2024/02/09 03:32:44;;;;;;;43.30;19.30;;;;;;;1.23;100.00;99160.21;105712;1263;99190;-81
2024/02/09 03:35:31;;;;;;;41.40;19.00;;;;;;;1.23;100.00;99162.28;106102;1264;97932;-81
2024/02/09 03:38:19;;;;;;;34.50;19.10;;;;;;;1.25;100.00;99162.12;106041;1266;97953;-79
2024/02/09 03:41:04;;;;;;;34.80;16.50;;;;;;;1.25;100.00;99160.52;105419;1266;101926;-79
2024/02/09 03:43:50;;;;;;;32.80;16.50;;;;;;;1.24;100.00;99162.95;105509;1265;99092;-80
2024/02/09 03:46:36;;;;;;;33.60;16.40;;;;;;;1.20;100.00;99165.21;105535;1267;98658;-80
2024/02/09 03:49:22;;;;;;;33.30;17.20;;;;;;;1.18;100.00;99165.23;105564;1267;97967;-81
2024/02/09 03:52:08;;;;;;;26.60;15.50;;;;;;;1.15;100.00;99164.54;106197;1264;98535;-81
2024/02/09 03:54:55;;;;;;;31.80;16.80;;;;;;;1.12;100.00;99174.86;106145;1260;102212;-81
2024/02/09 03:57:40;;;;;;;32.60;16.60;;;;;;;1.10;100.00;99179.69;106091;1264;99235;-81
2024/02/09 04:00:26;;;;;;;35.40;17.70;;;;;;;1.09;100.00;99172.40;106047;1264;97869;-81
2024/02/09 04:03:12;;;;;;;32.40;16.80;;;;;;;1.11;100.00;99164.95;106033;1267;97818;-82
2024/02/09 04:05:58;;;;;;;32.70;17.80;;;;;;;1.14;100.00;99167.48;106224;1264;98091;-80
2024/02/09 04:08:45;;;;;;;33.60;16.30;;;;;;;1.14;100.00;99173.05;106086;1267;101410;-80
2024/02/09 04:11:30;;;;;;;35.50;16.50;;;;;;;1.13;100.00;99164.18;105733;1261;99253;-81
2024/02/09 04:14:19;;;;;;;33.70;16.90;;;;;;;1.13;100.00;99156.86;106218;1261;98002;-81
2024/02/09 04:17:06;;;;;;;27.60;15.20;;;;;;;1.13;100.00;99154.20;105970;1260;98044;-80
2024/02/09 04:19:53;;;;;;;32.60;17.40;;;;;;;1.12;100.00;99156.04;106024;1261;99650;-81
2024/02/09 04:22:39;;;;;;;31.40;16.50;;;;;;;1.13;100.00;99155.24;106392;1261;101436;-81
2024/02/09 04:25:24;;;;;;;34.00;18.00;;;;;;;1.13;100.00;99148.59;106261;1264;99131;-82
2024/02/09 04:28:12;;;;;;;30.10;16.80;;;;;;;1.11;100.00;99137.34;106073;1267;98854;-80
2024/02/09 04:30:57;;;;;;;34.30;17.90;;;;;;;1.11;100.00;99119.11;105666;1274;97948;-81
2024/02/09 04:33:43;;;;;;;36.10;19.00;;;;;;;1.10;100.00;99112.00;105968;1267;99151;-80
2024/02/09 04:36:30;;;;;;;32.90;17.00;;;;;;;1.09;100.00;99116.84;106130;1261;101400;-80
2024/02/09 04:39:16;;;;;;;35.70;18.30;;;;;;;1.09;100.00;99116.34;106188;1267;99122;-80
2024/02/09 04:42:04;;;;;;;34.60;17.20;;;;;;;1.07;100.00;99112.67;106085;1264;98906;-81
2024/02/09 04:44:50;;;;;;;38.10;18.30;;;;;;;1.06;100.00;99109.33;106354;1266;98674;-82
2024/02/09 04:47:35;;;;;;;41.20;18.70;;;;;;;1.05;100.00;99109.41;106071;1266;99651;-81
2024/02/09 04:50:22;;;;;;;33.60;19.00;;;;;;;1.04;100.00;99112.52;106181;1264;101406;-80
2024/02/09 04:53:11;;;;;;;34.00;18.10;;;;;;;1.03;100.00;99120.42;106280;1261;100674;-81
2024/02/09 04:55:56;;;;;;;40.30;22.30;;;;;;;1.02;100.00;99127.27;106276;1266;97707;-81
2024/02/09 04:58:42;;;;;;;35.90;19.10;;;;;;;1.02;100.00;99120.11;106342;1264;98362;-80
2024/02/09 05:01:30;;;;;;;35.70;18.70;;;;;;;1.02;100.00;99125.23;106190;1263;98426;-80
2024/02/09 05:04:16;;;;;;;38.60;19.90;;;;;;;1.02;100.00;99140.25;106107;1268;101378;-79
2024/02/09 05:07:04;;;;;;;31.10;17.50;;;;;;;1.02;100.00;99147.30;106170;1264;99833;-81
2024/02/09 05:09:50;;;;;;;32.50;18.50;;;;;;;1.00;100.00;99143.70;105618;1266;98427;-79
2024/02/09 05:12:35;;;;;;;34.90;19.00;;;;;;;1.01;100.00;99140.61;105475;1260;98743;-79
2024/02/09 05:15:21;;;;;;;34.80;17.40;;;;;;;1.03;100.00;99136.33;105522;1260;97885;-80
2024/02/09 05:18:07;;;;;;;38.00;19.90;;;;;;;1.05;100.00;99131.90;105615;1266;101435;-80
2024/02/09 05:20:52;;;;;;;41.60;22.80;;;;;;;1.05;100.00;99131.57;105614;1267;99300;-80
2024/02/09 05:23:38;;;;;;;37.40;20.70;;;;;;;1.06;100.00;99131.54;106225;1264;97970;-80
2024/02/09 05:26:24;;;;;;;36.80;20.10;;;;;;;1.09;100.00;99129.46;106148;1263;98866;-80
2024/02/09 05:29:09;;;;;;;40.10;21.70;;;;;;;1.12;100.00;99124.45;105759;1264;97846;-81
2024/02/09 05:31:57;;;;;;;43.20;20.70;;;;;;;1.14;100.00;99120.31;105624;1265;102675;-80
2024/02/09 05:34:44;;;;;;;40.50;20.80;;;;;;;1.15;100.00;99113.78;105642;1265;99146;-81
2024/02/09 05:37:29;;;;;;;38.90;20.70;;;;;;;1.13;100.00;99114.29;106146;1267;97793;-80
2024/02/09 05:40:16;;;;;;;37.30;20.40;;;;;;;1.13;100.00;99116.72;106101;1262;97921;-81
2024/02/09 05:43:01;;;;;;;38.40;21.50;;;;;;;1.13;100.00;99114.64;105629;1265;98502;-81
2024/02/09 05:45:48;;;;;;;42.40;21.30;;;;;;;1.12;100.00;99112.98;106225;1267;102200;-80
2024/02/09 05:48:34;;;;;;;39.70;22.60;;;;;;;1.13;100.00;99117.70;105883;1267;100164;-81
2024/02/09 05:51:22;;;;;;;79.00;36.10;;;;;;;1.15;100.00;99118.01;106299;1264;98283;-81
2024/02/09 05:54:07;;;;;;;82.10;34.20;;;;;;;1.16;100.00;99120.67;106265;1261;97870;-81
2024/02/09 05:56:54;;;;;;;95.30;38.10;;;;;;;1.19;100.00;99114.77;106299;1263;96222;-80
2024/02/09 05:59:44;;;;;;;69.20;33.00;;;;;;;1.20;100.00;99117.02;106091;1266;101448;-81
2024/02/09 06:02:31;;;;;;;55.80;28.00;;;;;;;1.21;100.00;99124.14;106210;1261;100335;-81
2024/02/09 06:05:17;;;;;;;64.40;29.20;;;;;;;1.23;100.00;99121.80;106390;1267;99003;-81
2024/02/09 06:08:02;;;;;;;73.80;32.10;;;;;;;1.26;100.00;99119.59;106248;1261;97848;-81
2024/02/09 06:10:48;;;;;;;106.50;38.00;;;;;;;1.28;100.00;99111.97;106138;1263;98467;-81
2024/02/09 06:13:34;;;;;;;89.40;35.00;;;;;;;1.28;100.00;99107.95;105747;1263;101774;-79
2024/02/09 06:16:20;;;;;;;78.50;32.10;;;;;;;1.27;100.00;99105.88;106278;1261;99282;-80
2024/02/09 06:19:07;;;;;;;90.30;34.80;;;;;;;1.27;100.00;99106.77;105763;1264;98012;-81
2024/02/09 06:21:52;;;;;;;83.80;35.20;;;;;;;1.29;100.00;99106.44;105655;1264;98655;-80
2024/02/09 06:24:39;;;;;;;72.80;34.70;;;;;;;1.29;100.00;99106.94;105639;1261;98496;-81
2024/02/09 06:27:25;;;;;;;46.40;24.10;;;;;;;1.28;100.00;99116.17;105750;1264;102604;-79
2024/02/09 06:30:11;;;;;;;39.70;23.50;;;;;;;1.29;100.00;99121.02;106275;1262;99148;-79
2024/02/09 06:32:57;;;;;;;49.20;25.20;;;;;;;1.29;100.00;99127.15;106155;1264;97900;-80
2024/02/09 06:35:43;;;;;;;51.50;24.70;;;;;;;1.28;100.00;99128.29;106192;1264;98014;-82
2024/02/09 06:38:28;;;;;;;44.10;24.80;;;;;;;1.28;100.00;99127.84;106092;1261;98386;-80
2024/02/09 06:41:14;;;;;;;56.10;26.50;;;;;;;1.27;100.00;99128.77;106108;1262;101741;-79
2024/02/09 06:44:00;;;;;;;69.40;33.10;;;;;;;1.28;100.00;99128.31;106223;1265;99141;-80
2024/02/09 06:46:45;;;;;;;65.00;33.00;;;;;;;1.30;100.00;99127.90;105654;1261;99047;-78
2024/02/09 06:49:31;;;;;;;54.60;27.60;;;;;;;1.32;100.00;99125.89;106075;1261;97755;-79
2024/02/09 06:52:18;;;;;;;56.10;27.20;;;;;;;1.35;100.00;99126.12;106254;1264;98040;-81
2024/02/09 06:55:08;;;;;;;60.70;28.30;;;;;;;1.35;100.00;99133.35;105756;1264;101423;-79
2024/02/09 06:57:54;;;;;;;50.20;25.90;;;;;;;1.35;100.00;99140.61;105836;1264;99115;-80
2024/02/09 07:00:39;;;;;;;45.60;25.20;;;;;;;1.36;100.00;99137.70;106210;1266;99259;-81
2024/02/09 07:03:27;;;;;;;58.00;27.50;;;;;;;1.37;100.00;99125.08;106211;1262;97980;-80
2024/02/09 07:06:12;;;;;;;44.40;24.20;;;;;;;1.39;100.00;99115.71;106379;1265;97789;-81
2024/02/09 07:08:58;;;;;;;44.90;23.80;;;;;;;1.41;100.00;99115.19;106240;1264;101392;-82
2024/02/09 07:11:47;;;;;;;40.90;23.10;;;;;;;1.41;100.00;99115.20;106183;1261;99095;-79
2024/02/09 07:14:32;;;;;;;44.30;22.60;;;;;;;1.38;100.00;99114.05;106295;1264;97959;-81
2024/02/09 07:17:18;;;;;;;42.70;22.10;;;;;;;1.37;100.00;99109.90;106224;1264;97953;-81
2024/02/09 07:20:04;;;;;;;42.10;22.70;;;;;;;1.38;100.00;99105.19;106306;1261;222653;-81
2024/02/09 07:22:51;;;;;;;44.40;22.80;;;;;;;1.39;100.00;99101.67;106318;1260;101338;-80
2024/02/09 07:25:36;;;;;;;40.20;21.20;;;;;;;1.41;100.00;99103.15;106321;1262;100323;-82
2024/02/09 07:28:22;;;;;;;42.80;23.00;;;;;;;1.43;100.00;99096.29;106076;1264;98478;-79
2024/02/09 07:31:09;;;;;;;37.50;20.00;;;;;;;1.43;100.00;99082.21;106284;1262;98053;-80
2024/02/09 07:33:55;;;;;;;45.40;24.50;;;;;;;1.43;100.00;99076.55;106233;1261;98000;-80
2024/02/09 07:36:41;;;;;;;49.20;25.10;;;;;;;1.42;100.00;99074.67;106198;1265;101397;-80
2024/02/09 07:39:27;;;;;;;74.00;31.60;;;;;;;1.42;100.00;99076.66;106364;1265;100424;-81
2024/02/09 07:42:12;;;;;;;62.40;29.70;;;;;;;1.43;100.00;99075.67;106318;1262;98576;-81
2024/02/09 07:44:58;;;;;;;114.10;46.60;;;;;;;1.46;100.00;99077.86;106308;1261;97976;-82
2024/02/09 07:47:48;;;;;;;51.40;25.80;;;;;;;1.49;100.00;99087.02;106470;1261;97965;-82
2024/02/09 07:50:41;;;;;;;100.40;39.30;;;;;;;1.49;100.00;99086.95;106489;1267;102716;-80
2024/02/09 07:53:30;;;;;;;96.40;40.60;;;;;;;1.54;100.00;99078.90;106449;1263;99691;-82
2024/02/09 07:56:15;;;;;;;52.80;26.20;;;;;;;1.64;100.00;99071.34;106314;1261;97886;-80
2024/02/09 07:59:01;;;;;;;67.90;33.10;;;;;;;1.66;100.00;99066.45;106359;1261;99245;-82
2024/02/09 08:02:01;;;;;;;329.80;150.80;;;;;;;1.69;100.00;99063.70;106606;1260;96336;-89
2024/02/09 08:04:46;;;;;;;212.70;99.10;;;;;;;1.70;100.00;99074.63;106469;1261;101421;-81
2024/02/09 08:07:36;;;;;;;174.40;72.10;;;;;;;1.73;100.00;99083.17;106480;1262;100281;-87
2024/02/09 08:10:22;;;;;;;114.10;52.60;;;;;;;1.76;100.00;99086.46;105960;1265;98961;-78
2024/02/09 08:13:09;;;;;;;359.10;162.00;;;;;;;1.78;100.00;99081.73;105288;1262;98378;-83
2024/02/09 08:15:56;;;;;;;134.90;67.60;;;;;;;1.79;100.00;99077.09;105974;1264;97834;-86
2024/02/09 08:18:42;;;;;;;116.50;67.20;;;;;;;1.80;100.00;99072.20;106401;1264;102409;-79
2024/02/09 08:21:28;;;;;;;75.00;41.00;;;;;;;1.83;100.00;99067.97;105941;1261;99126;-79
2024/02/09 08:24:14;;;;;;;95.70;57.80;;;;;;;1.86;100.00;99077.80;105790;1264;97990;-88
2024/02/09 08:27:00;;;;;;;68.90;37.50;;;;;;;1.88;100.00;99080.75;105150;1262;97894;-77
2024/02/09 08:29:45;;;;;;;77.00;40.50;;;;;;;1.90;100.00;99076.67;105199;1264;97977;-77
2024/02/09 08:32:31;;;;;;;88.50;48.60;;;;;;;1.92;100.00;99069.56;105043;1265;101371;-77
2024/02/09 08:35:18;;;;;;;82.10;44.30;;;;;;;1.95;100.00;99066.12;105002;1264;99751;-76
2024/02/09 08:38:04;;;;;;;75.40;46.10;;;;;;;1.95;100.00;99063.90;105270;1261;98877;-85
2024/02/09 08:40:50;;;;;;;128.70;80.10;;;;;;;1.96;100.00;99060.67;106423;1267;98077;-87
2024/02/09 08:43:36;;;;;;;92.00;53.30;;;;;;;1.95;100.00;99057.97;106053;1266;96893;-82
2024/02/09 08:46:25;;;;;;;51.50;30.60;;;;;;;1.96;100.00;99054.70;106319;1262;102641;-82
2024/02/09 08:52:30;;;;;;;63.00;38.50;;;;;;;2.02;100.00;99035.21;104940;1277;98741;-77
2024/02/09 08:55:16;;;;;;;55.80;34.30;;;;;;;2.05;100.00;99035.81;105063;1266;98019;-77
2024/02/09 08:58:07;;;;;;;52.70;33.30;;;;;;;2.08;100.00;99029.95;105818;1263;97988;-79
2024/02/09 09:00:52;;;;;;;59.90;32.50;;;;;;;2.12;100.00;99033.09;105377;1268;101611;-88
2024/02/09 09:03:39;;;;;;;72.70;38.80;;;;;;;2.12;100.00;99035.77;106394;1269;100430;-88
2024/02/09 09:06:27;;;;;;;82.70;46.00;;;;;;;2.16;100.00;99038.56;106294;1264;99086;-84
2024/02/09 09:09:16;;;;;;;44.60;25.60;;;;;;;2.23;100.00;99038.36;106298;1263;97888;-81
2024/02/09 09:12:07;;;;;;;35.50;21.20;;;;;;;2.26;100.00;99046.02;105949;1264;97717;-79
2024/02/09 09:14:53;;;;;;;34.20;25.30;;;;;;;2.28;100.00;99048.58;105331;1267;101500;-79
2024/02/09 09:17:40;;;;;;;30.40;18.60;;;;;;;2.30;100.00;99051.73;105243;1267;100448;-78
2024/02/09 09:20:26;;;;;;;66.00;45.50;;;;;;;2.29;100.00;99051.04;105678;1269;99063;-77
2024/02/09 09:23:12;;;;;;;90.40;59.90;;;;;;;2.31;100.00;99044.70;105346;1263;97986;-82
2024/02/09 09:25:58;;;;;;;50.10;36.30;;;;;;;2.34;100.00;99036.79;105779;1264;97836;-85
2024/02/09 09:28:43;;;;;;;80.10;67.50;;;;;;;2.37;100.00;99036.52;105971;1268;103095;-82
2024/02/09 09:31:32;;;;;;;45.10;40.10;;;;;;;2.40;100.00;99040.43;105611;1264;99265;-78
2024/02/09 09:34:17;;;;;;;28.20;20.80;;;;;;;2.42;100.00;99040.71;105443;1264;99046;-78
2024/02/09 09:37:06;;;;;;;33.10;23.80;;;;;;;2.45;100.00;99035.26;105473;1267;97880;-78
2024/02/09 09:39:51;;;;;;;23.80;16.50;;;;;;;2.45;100.00;99028.51;105492;1267;97801;-77
2024/02/09 09:42:41;;;;;;;23.30;14.90;;;;;;;2.46;100.00;99029.49;105338;1263;101544;-77
2024/02/09 09:45:27;;;;;;;23.10;16.10;;;;;;;2.46;100.00;99030.59;105214;1267;99954;-78
2024/02/09 09:48:15;;;;;;;26.30;18.30;;;;;;;2.45;100.00;99029.73;105342;1264;98762;-83
2024/02/09 09:51:09;;;;;;;22.20;14.60;;;;;;;2.45;100.00;99025.20;105731;1267;98063;-84
2024/02/09 09:53:54;;;;;;;26.60;17.70;;;;;;;2.42;100.00;99026.02;105827;1263;97936;-77
2024/02/09 09:56:44;;;;;;;18.80;11.70;;;;;;;2.39;100.00;99027.13;105517;1264;102693;-78
2024/02/09 09:59:31;;;;;;;19.90;12.30;;;;;;;2.36;100.00;99028.30;105556;1264;99308;-78
2024/02/09 10:02:17;;;;;;;19.10;12.30;;;;;;;2.34;100.00;99027.41;105835;1263;99518;-77
2024/02/09 10:05:04;;;;;;;18.30;12.30;;;;;;;2.34;100.00;99029.10;105594;1267;98848;-78
2024/02/09 10:07:51;;;;;;;18.50;11.40;;;;;;;2.33;100.00;99027.61;105535;1264;98599;-77
2024/02/09 10:10:37;;;;;;;23.70;16.50;;;;;;;2.33;100.00;99030.06;105446;1267;101439;-78
2024/02/09 10:13:24;;;;;;;24.20;15.60;;;;;;;2.32;100.00;99026.60;105527;1264;99108;-78
2024/02/09 10:16:10;;;;;;;19.60;13.00;;;;;;;2.33;100.00;99023.15;105491;1263;97994;-78
2024/02/09 10:18:55;;;;;;;18.10;11.00;;;;;;;2.34;100.00;99020.25;105910;1263;97914;-77
2024/02/09 10:21:41;;;;;;;24.70;16.50;;;;;;;2.34;100.00;99019.32;106077;1267;98064;-85
2024/02/09 10:24:27;;;;;;;26.20;17.40;;;;;;;2.34;100.00;99021.45;105878;1262;101392;-78
2024/02/09 10:27:13;;;;;;;37.00;23.40;;;;;;;2.33;100.00;99014.93;105550;1267;99895;-84
2024/02/09 10:29:59;;;;;;;31.00;19.10;;;;;;;2.32;100.00;99013.09;105801;1263;98542;-80
2024/02/09 10:32:45;;;;;;;21.90;14.50;;;;;;;2.31;100.00;99011.44;105675;1264;98044;-87
2024/02/09 10:35:31;;;;;;;18.20;13.00;;;;;;;2.29;100.00;99004.41;105937;1270;98167;-88
2024/02/09 10:38:16;;;;;;;19.60;12.60;;;;;;;2.29;100.00;99005.54;105923;1263;102775;-80
2024/02/09 10:41:03;;;;;;;19.10;11.80;;;;;;;2.28;100.00;99001.75;105944;1263;99210;-80
2024/02/09 10:43:53;;;;;;;16.60;10.20;;;;;;;2.27;100.00;99000.43;105446;1263;98492;-79
2024/02/09 10:46:39;;;;;;;19.40;11.60;;;;;;;2.24;100.00;99001.31;105525;1264;97972;-79
2024/02/09 10:49:29;;;;;;;16.60;12.00;;;;;;;2.22;100.00;98996.42;105577;1262;98009;-78
2024/02/09 10:52:17;;;;;;;26.30;14.20;;;;;;;2.22;100.00;98989.11;105664;1262;102668;-82
2024/02/09 10:55:06;;;;;;;29.60;19.90;;;;;;;2.23;100.00;98982.09;106106;1262;99236;-81
2024/02/09 10:57:53;;;;;;;25.70;15.90;;;;;;;2.27;100.00;98979.14;105993;1262;97914;-80
2024/02/09 11:00:41;;;;;;;15.00;12.20;;;;;;;2.27;100.00;98976.83;105980;1264;97912;-81
2024/02/09 11:03:27;;;;;;;26.20;21.10;;;;;;;2.21;100.00;98972.36;106306;1266;96277;-81
2024/02/09 11:06:13;;;;;;;22.30;17.70;;;;;;;2.17;100.00;98969.95;106183;1266;102723;-82
2024/02/09 11:08:58;;;;;;;24.40;20.30;;;;;;;2.14;100.00;98969.36;106033;1262;100116;-81
2024/02/09 11:11:47;;;;;;;47.30;42.60;;;;;;;2.12;100.00;98967.26;105860;1262;97975;-80
2024/02/09 11:14:34;;;;;;;30.30;27.10;;;;;;;2.11;100.00;98964.76;106106;1263;99217;-82
2024/02/09 11:17:19;;;;;;;19.60;16.50;;;;;;;2.12;100.00;98963.07;105854;1263;98449;-83
2024/02/09 11:20:09;;;;;;;14.80;11.70;;;;;;;2.12;100.00;98952.17;105597;1264;102171;-84
2024/02/09 11:23:00;;;;;;;24.20;18.30;;;;;;;2.08;100.00;98947.90;105821;1264;100373;-87
2024/02/09 11:25:46;;;;;;;29.90;22.30;;;;;;;2.02;100.00;98939.02;105897;1267;98939;-80
2024/02/09 11:28:31;;;;;;;16.80;10.90;;;;;;;2.00;100.00;98932.95;105818;1267;98060;-81
2024/02/09 11:31:22;;;;;;;13.00;9.40;;;;;;;1.96;100.00;98926.42;106063;1262;98838;-82
2024/02/09 11:34:08;;;;;;;15.50;10.40;;;;;;;1.92;100.00;98918.05;105273;1262;102735;-85
2024/02/09 11:37:00;;;;;;;17.70;13.50;;;;;;;1.88;100.00;98915.84;105472;1264;99272;-82
2024/02/09 11:39:45;;;;;;;46.30;32.00;;;;;;;1.82;100.00;98919.84;105841;1264;99992;-80
2024/02/09 11:42:32;;;;;;;28.30;16.50;;;;;;;1.79;100.00;98914.26;106206;1264;97891;-80
2024/02/09 11:45:18;;;;;;;41.20;25.30;;;;;;;1.78;100.00;98916.23;106122;1267;98965;-81
2024/02/09 11:48:05;;;;;;;24.30;15.30;;;;;;;1.76;100.00;98910.73;105951;1267;101378;-80
2024/02/09 11:50:53;;;;;;;24.70;16.20;;;;;;;1.75;100.00;98910.27;105825;1262;100470;-78
2024/02/09 11:53:39;;;;;;;25.30;18.10;;;;;;;1.75;100.00;98909.05;105956;1262;97894;-78
2024/02/09 11:56:24;;;;;;;24.80;13.60;;;;;;;1.74;100.00;98900.02;105233;1267;98014;-78
2024/02/09 11:59:11;;;;;;;18.40;11.70;;;;;;;1.75;100.00;98895.29;105206;1267;97880;-78
2024/02/09 12:01:56;;;;;;;22.00;13.50;;;;;;;1.80;100.00;98885.44;106017;1262;102053;-78
2024/02/09 12:04:47;;;;;;;18.30;11.30;;;;;;;1.78;100.00;98880.73;105828;1262;99140;-86
2024/02/09 12:07:34;;;;;;;17.40;9.50;;;;;;;1.75;100.00;98887.61;106077;1262;99432;-86
2024/02/09 12:10:21;;;;;;;17.30;13.00;;;;;;;1.73;100.00;98902.80;106079;1262;98107;-84
2024/02/09 12:13:07;;;;;;;23.70;18.80;;;;;;;1.71;100.00;98912.85;106064;1267;97875;-86
2024/02/09 12:15:54;;;;;;;23.80;17.90;;;;;;;1.68;100.00;98910.86;105760;1267;102430;-84
2024/02/09 12:18:45;;;;;;;15.90;10.80;;;;;;;1.67;100.00;98903.94;105580;1262;100601;-77
2024/02/09 12:21:32;;;;;;;15.70;10.80;;;;;;;1.67;100.00;98895.13;105939;1262;98422;-84
2024/02/09 12:24:17;;;;;;;34.00;20.70;;;;;;;1.66;100.00;98896.21;106108;1264;97982;-85
2024/02/09 12:27:24;;;;;;;26.40;13.50;;;;;;;1.63;100.00;98893.94;105976;1262;97859;-85
2024/02/09 12:30:11;;;;;;;59.90;27.70;;;;;;;1.62;100.00;98895.58;106055;1269;103188;-83
2024/02/09 12:33:00;;;;;;;38.30;17.90;;;;;;;1.63;100.00;98897.42;106403;1262;99334;-88
2024/02/09 12:35:46;;;;;;;35.30;17.30;;;;;;;1.64;100.00;98897.63;106159;1262;99329;-80
2024/02/09 12:38:33;;;;;;;44.90;21.30;;;;;;;1.63;100.00;98896.30;106279;1262;97919;-82
2024/02/09 12:41:18;;;;;;;27.60;17.80;;;;;;;1.64;100.00;98894.27;106152;1264;99286;-79
2024/02/09 12:44:05;;;;;;;99.10;52.00;;;;;;;1.64;100.00;98895.05;106106;1262;102480;-78
2024/02/09 12:46:51;;;;;;;41.80;32.00;;;;;;;1.62;100.00;98894.92;105668;1265;99116;-86
2024/02/09 12:49:37;;;;;;;87.30;55.40;;;;;;;1.61;100.00;98895.65;105823;1267;98062;-84
2024/02/09 12:52:25;;;;;;;43.80;28.20;;;;;;;1.60;100.00;98895.83;105836;1267;98071;-81
2024/02/09 12:55:12;;;;;;;56.80;34.40;;;;;;;1.58;100.00;98892.54;105607;1266;98099;-80
2024/02/09 12:57:59;;;;;;;49.20;27.10;;;;;;;1.56;100.00;98887.76;105301;1267;102126;-79
2024/02/09 13:00:46;;;;;;;51.50;30.60;;;;;;;1.52;100.00;98891.01;105544;1262;99488;-81
2024/02/09 13:03:32;;;;;;;33.40;20.70;;;;;;;1.50;100.00;98878.58;105963;1267;97976;-78
2024/02/09 13:06:18;;;;;;;36.80;23.20;;;;;;;1.51;100.00;98870.75;105552;1264;97942;-81
2024/02/09 13:09:04;;;;;;;14.70;10.50;;;;;;;1.50;100.00;98858.33;105876;1262;99748;-84
2024/02/09 13:11:51;;;;;;;19.00;11.40;;;;;;;1.50;100.00;98858.53;105043;1269;102264;-77
2024/02/09 13:14:37;;;;;;;25.00;13.60;;;;;;;1.49;100.00;98847.72;105965;1262;99247;-78
2024/02/09 13:17:23;;;;;;;21.70;12.20;;;;;;;1.51;100.00;98844.58;104992;1265;97978;-79
2024/02/09 13:20:09;;;;;;;59.80;32.00;;;;;;;1.51;100.00;98834.36;105029;1260;97989;-79
2024/02/09 13:22:55;;;;;;;65.20;33.70;;;;;;;1.50;100.00;98825.82;105027;1262;98605;-75
2024/02/09 13:25:42;;;;;;;34.90;19.40;;;;;;;1.48;100.00;98827.80;105768;1262;103529;-84
2024/02/09 13:28:29;;;;;;;35.70;20.50;;;;;;;1.48;100.00;98830.31;105850;1263;99289;-80
2024/02/09 13:31:15;;;;;;;37.80;21.20;;;;;;;1.47;100.00;98829.85;105426;1264;98073;-77
2024/02/09 13:34:01;;;;;;;124.10;68.40;;;;;;;1.49;100.00;98825.48;105687;1262;97980;-79
2024/02/09 13:36:47;;;;;;;63.20;33.60;;;;;;;1.49;100.00;98822.10;105639;1262;97871;-78
2024/02/09 13:39:32;;;;;;;63.30;46.10;;;;;;;1.51;100.00;98811.48;105568;1262;101370;-81
2024/02/09 13:42:21;;;;;;;31.60;21.40;;;;;;;1.50;100.00;98796.95;105821;1262;101310;-80
2024/02/09 13:45:09;;;;;;;16.20;11.20;;;;;;;1.52;100.00;98792.92;105881;1262;98291;-79
2024/02/09 13:47:56;;;;;;;22.60;18.40;;;;;;;1.50;100.00;98782.73;105758;1262;97907;-81
2024/02/09 13:50:42;;;;;;;14.90;10.90;;;;;;;1.49;100.00;98780.06;106046;1262;97956;-80
2024/02/09 13:53:28;;;;;;;14.60;10.20;;;;;;;1.48;100.00;98779.76;105943;1266;101986;-79
2024/02/09 13:56:16;;;;;;;18.20;11.30;;;;;;;1.52;100.00;98781.27;105111;1262;99261;-75
2024/02/09 13:59:01;;;;;;;17.70;12.80;;;;;;;1.57;100.00;98775.84;105074;1262;97971;-76
2024/02/09 14:01:47;;;;;;;21.90;15.80;;;;;;;1.56;100.00;98774.34;105112;1262;97962;-76
2024/02/09 14:04:34;;;;;;;17.50;12.40;;;;;;;1.57;100.00;98775.15;105074;1266;99159;-77
2024/02/09 14:07:22;;;;;;;23.50;16.40;;;;;;;1.54;100.00;98777.99;105010;1262;101344;-76
2024/02/09 14:10:11;;;;;;;26.20;18.70;;;;;;;1.54;100.00;98779.65;104946;1262;99351;-77
2024/02/09 14:12:57;;;;;;;28.40;19.60;;;;;;;1.64;100.00;98782.55;105104;1267;97990;-76
2024/02/09 14:15:43;;;;;;;24.10;13.40;;;;;;;1.76;100.00;98777.05;104730;1267;98677;-76
2024/02/09 14:18:29;;;;;;;32.20;16.60;;;;;;;1.82;100.00;98772.59;104933;1266;98449;-77
2024/02/09 14:21:15;;;;;;;25.50;15.60;;;;;;;1.93;100.00;98773.10;104788;1262;101392;-77
2024/02/09 14:24:00;;;;;;;27.60;16.60;;;;;;;1.94;100.00;98776.79;105161;1262;100446;-76
2024/02/09 14:26:50;;;;;;;26.60;15.70;;;;;;;1.90;100.00;98777.44;105053;1267;98998;-76